Airfield :
LOGIN :

Register | Disclaimer

   EN    FR    IT 

 










Legend :    VFR   Marginal VFR   IFR   Intensive IFR   Very Intensive IFR
Visi :
Ceiling :
>= 8 km
>= 3000ft
5 to 8 km
1000 to 3000 ft
1500m to 5 km
500 to 1000 ft
800 to 1500m
200 to 500 ft
< 800m
< 200 ft
Symbols :   Thunderstorms  Fog  Heavy snow  Heavy precipitations  Wind > 20 kt
SIGMETs :     Misc.  Thunderstorms  Icing  Turbulence  Mountain Waves  Volcanic Ashes






- Airport Elevation : 197 ft
- IATA code : XOG


LFMO - Orange

CURRENT METAR :
  • 282200Z AUTO 35020KT CAVOK 09/04 Q1016 BECMG 35020G35KT

EXPIRED METARs :
  • 282130Z AUTO 35021KT CAVOK 09/04 Q1016 BECMG 35020G35KT
  • 282100Z AUTO 35021G32KT CAVOK 09/04 Q1017 NOSIG
  • 282030Z AUTO 35020KT CAVOK 09/04 Q1017 BECMG 35020G35KT
  • 282000Z AUTO 35017KT CAVOK 09/04 Q1017 BECMG 35020G35KT
  • 281930Z AUTO 35021G31KT CAVOK 09/04 Q1017 NOSIG
  • 281900Z AUTO 35019KT CAVOK 09/04 Q1017 BECMG 35020G35KT
  • 281830Z AUTO 35020KT CAVOK 09/04 Q1017 BECMG 35020G35KT
  • 281800Z AUTO 35022KT CAVOK 09/04 Q1017 TEMPO 35030G40KT
  • 281730Z AUTO 34021KT CAVOK 09/04 Q1017 TEMPO 35030G40KT
  • 281700Z AUTO 35022G33KT CAVOK 10/04 Q1017 NOSIG

TAF TAF LFMO
Valid from the 28 at 21:00 until the 29 at 21:00 UTC


282000Z 2821/2921 35020G35KT CAVOK TX17/2913Z TN06/2906Z
BECMG 2908/2910 35015G25KT
BECMG 2911/2913 35005KT



MET'MAP, your aeronautical weather chart ! - Copyright ORBIFLY December 2007 - Disclaimer

ORBIFLY MET'MAP TEAM :

Programming & Development : Alexandra Zaïnal
Original concept : Baudouin d'Aumeries
Technical & hardware support : Manuel Goepfert
Assistance : Marc-Olivier Méhu




SOURCES & CREDITS :

   NOAA